Latest Weather Observations for Spring Bay

IDT60801

Issued at 2:35 pm EDT Sunday 23 November 2014 (issued every 30 minutes, with the page automatically refreshed every 10 minutes)

About weather observations | Map of weather stations | Latest weather observations for TAS | Other Formats
Station Details ID: 092133 Name: SPRING BAY NTC AWS Lat: -42.55 Lon: 147.93 Height: 0.0 m
Data from the previous 72 hours. | See also: Recent months for locations in Tasmania
Date/Time
EDT
Temp
°C
App
Temp
°C
Dew
Point
Rel
Hum
%
Delta-T
°C
Wind Press
QNH
hPa
Press
MSL
hPa
Rain
since 9 am
mm
Dir
 
Spd
km/h
Gust
km/h
Spd
kts
Gust
kts
23/02:30pm 16.3 - - - - - - - - - 1009.3 1009.3 -
23/02:00pm 16.3 - - - - - - - - - 1009.2 1009.2 -
23/01:30pm 16.5 - - - - - - - - - 1009.0 1009.0 -
23/01:00pm 17.0 - - - - - - - - - 1008.7 1008.7 -
23/12:30pm 16.3 - - - - - - - - - 1008.5 1008.5 -
23/12:00pm 16.6 - - - - - - - - - 1008.5 1008.5 -
23/11:30am 16.4 - - - - - - - - - 1008.5 1008.5 -
23/11:00am 16.6 - - - - - - - - - 1008.2 1008.2 -
23/10:30am 18.6 - - - - - - - - - 1008.0 1008.0 -
23/10:00am 18.9 - - - - - - - - - 1007.7 1007.7 -
23/09:30am 18.9 - - - - - - - - - 1007.7 1007.7 -
23/09:00am 17.6 - - - - - - - - - 1007.6 1007.6 -
23/08:30am 17.8 - - - - - - - - - 1007.2 1007.2 -
23/08:00am 17.4 - - - - - - - - - 1007.0 1007.0 -
23/07:30am 17.3 - - - - - - - - - 1006.5 1006.5 -
23/07:00am 16.2 - - - - - - - - - 1005.9 1005.9 -
23/06:30am 14.8 - - - - - - - - - 1005.4 1005.4 -
23/06:00am 14.1 - - - - - - - - - 1004.6 1004.6 -
23/05:30am 14.0 - - - - - - - - - 1004.1 1004.1 -
23/05:00am 14.2 - - - - - - - - - 1003.9 1003.9 -
23/04:30am 15.1 - - - - - - - - - 1003.7 1003.7 -
23/04:00am 15.5 - - - - - - - - - 1003.2 1003.2 -
23/03:30am 15.9 - - - - - - - - - 1003.2 1003.2 -
23/03:00am 16.2 - - - - - - - - - 1003.0 1003.0 -
23/02:30am 16.0 - - - - - - - - - 1002.7 1002.7 -
23/02:00am 16.9 - - - - - - - - - 1002.6 1002.6 -
23/01:30am 17.5 - - - - - - - - - 1002.8 1002.8 -
23/01:00am 17.7 - - - - - - - - - 1003.1 1003.1 -
23/12:30am 18.0 - - - - - - - - - 1003.5 1003.5 -
23/12:00am 18.4 - - - - - - - - - 1003.4 1003.4 -
 
Date/Time
EDT
Temp
°C
App
Temp
°C
Dew
Point
Rel
Hum
%
Delta-T
°C
Wind Press
QNH
hPa
Press
MSL
hPa
Rain
since 9 am
mm
Dir
 
Spd
km/h
Gust
km/h
Spd
kts
Gust
kts
22/11:30pm 18.4 - - - - - - - - - 1003.8 1003.8 -
22/11:00pm 18.6 - - - - - - - - - 1003.6 1003.6 -
22/10:30pm 18.9 - - - - - - - - - 1003.5 1003.5 -
22/10:00pm 19.2 - - - - - - - - - 1003.6 1003.6 -
22/09:30pm 19.7 - - - - - - - - - 1003.9 1003.9 -
22/09:00pm 19.7 - - - - - - - - - 1003.7 1003.7 -
22/08:30pm 19.5 - - - - - - - - - 1003.7 1003.7 -
22/08:00pm 19.6 - - - - - - - - - 1003.8 1003.8 -
22/07:30pm 19.8 - - - - - - - - - 1003.3 1003.3 -
22/07:00pm 20.5 - - - - - - - - - 1003.5 1003.5 -
22/06:30pm 20.0 - - - - - - - - - 1003.2 1003.2 -
22/06:00pm 20.7 - - - - - - - - - 1003.0 1003.0 -
22/05:30pm 20.5 - - - - - - - - - 1003.1 1003.1 -
22/05:00pm 21.3 - - - - - - - - - 1003.6 1003.6 -
22/04:30pm 21.9 - - - - - - - - - 1003.3 1003.3 -
22/04:00pm 21.5 - - - - - - - - - 1003.5 1003.5 -
22/03:30pm 21.2 - - - - - - - - - 1003.8 1003.8 -
22/03:00pm 21.9 - - - - - - - - - 1004.2 1004.2 -
22/02:30pm 20.8 - - - - - - - - - 1004.6 1004.6 -
22/02:00pm 20.1 - - - - - - - - - 1005.0 1005.0 -
22/01:30pm 20.2 - - - - - - - - - 1005.4 1005.4 -
22/01:00pm 19.7 - - - - - - - - - 1005.6 1005.6 -
22/12:30pm 19.6 - - - - - - - - - 1006.1 1006.1 -
22/12:00pm 19.4 - - - - - - - - - 1006.1 1006.1 -
22/11:30am 18.7 - - - - - - - - - 1006.4 1006.4 -
22/11:00am 17.1 - - - - - - - - - 1006.9 1006.9 -
22/10:30am 16.0 - - - - - - - - - 1007.2 1007.2 -
22/10:00am 15.9 - - - - - - - - - 1007.2 1007.2 -
22/09:30am 15.5 - - - - - - - - - 1007.6 1007.6 -
22/09:00am 14.9 - - - - - - - - - 1008.0 1008.0 -
22/08:30am 15.4 - - - - - - - - - 1007.8 1007.8 -
22/08:00am 15.1 - - - - - - - - - 1008.0 1008.0 -
22/07:30am 14.5 - - - - - - - - - 1007.8 1007.8 -
22/07:00am 11.4 - - - - - - - - - 1008.0 1008.0 -
22/06:30am 10.8 - - - - - - - - - 1007.7 1007.7 -
22/06:00am 10.3 - - - - - - - - - 1007.5 1007.5 -
22/05:30am 9.8 - - - - - - - - - 1007.3 1007.3 -
22/05:00am 10.3 - - - - - - - - - 1007.6 1007.6 -
22/04:30am 10.0 - - - - - - - - - 1007.8 1007.8 -
22/04:00am 9.8 - - - - - - - - - 1007.9 1007.9 -
22/03:30am 10.0 - - - - - - - - - 1007.9 1007.9 -
22/03:00am 10.0 - - - - - - - - - 1008.1 1008.1 -
22/02:30am 9.5 - - - - - - - - - 1008.5 1008.5 -
22/02:00am 10.2 - - - - - - - - - 1008.8 1008.8 -
22/01:30am 10.6 - - - - - - - - - 1009.4 1009.4 -
22/01:00am 10.7 - - - - - - - - - 1010.0 1010.0 -
22/12:30am 10.9 - - - - - - - - - 1010.3 1010.3 -
22/12:00am 11.0 - - - - - - - - - 1010.7 1010.7 -
 
Date/Time
EDT
Temp
°C
App
Temp
°C
Dew
Point
Rel
Hum
%
Delta-T
°C
Wind Press
QNH
hPa
Press
MSL
hPa
Rain
since 9 am
mm
Dir
 
Spd
km/h
Gust
km/h
Spd
kts
Gust
kts
21/11:30pm 11.1 - - - - - - - - - 1010.7 1010.7 -
21/11:00pm 11.2 - - - - - - - - - 1010.9 1010.9 -
21/10:30pm 11.6 - - - - - - - - - 1011.2 1011.2 -
21/10:00pm 12.2 - - - - - - - - - 1010.7 1010.7 -
21/09:30pm 12.9 - - - - - - - - - 1010.6 1010.6 -
21/09:00pm 12.7 - - - - - - - - - 1010.3 1010.3 -
21/08:30pm 12.6 - - - - - - - - - 1009.8 1009.8 -
21/08:00pm 13.3 - - - - - - - - - 1009.2 1009.2 -
21/07:30pm 13.9 - - - - - - - - - 1008.5 1008.5 -
21/07:00pm 14.3 - - - - - - - - - 1007.6 1007.6 -
21/06:30pm 14.6 - - - - - - - - - 1007.1 1007.1 -
21/06:00pm 15.0 - - - - - - - - - 1006.7 1006.7 -
21/05:30pm 14.6 - - - - - - - - - 1006.5 1006.5 -
21/05:00pm 14.2 - - - - - - - - - 1006.1 1006.1 -
21/04:30pm 14.3 - - - - - - - - - 1006.1 1006.1 -
21/04:00pm 14.2 - - - - - - - - - 1006.0 1006.0 -
21/03:30pm 14.0 - - - - - - - - - 1005.9 1005.9 -
21/03:00pm 14.0 - - - - - - - - - 1006.0 1006.0 -
21/02:30pm 13.6 - - - - - - - - - 1005.7 1005.7 -
21/02:00pm 14.4 - - - - - - - - - 1005.5 1005.5 -
21/01:30pm 14.0 - - - - - - - - - 1005.5 1005.5 -
21/01:00pm 14.5 - - - - - - - - - 1005.1 1005.1 -
21/12:30pm 14.3 - - - - - - - - - 1004.6 - -
21/12:00pm 15.0 - - - - - - - - - 1004.4 1004.4 -
21/11:30am 15.1 - - - - - - - - - 1004.2 - -
21/11:00am 14.1 - - - - - - - - - 1003.5 1003.5 -
21/10:30am 15.3 - - - - - - - - - 1003.0 - -
21/10:00am 15.7 - - - - - - - - - 1003.0 1003.0 -
21/09:30am 15.7 - - - - - - - - - 1002.7 - -
21/09:00am 15.1 - - - - - - - - - 1002.3 1002.3 -
21/08:30am 15.2 - - - - - - - - - 1002.0 - -
21/08:00am 15.0 - - - - - - - - - 1001.3 1001.3 -
21/07:30am 14.9 - - - - - - - - - 1001.2 - -
21/07:00am 14.8 - - - - - - - - - 1000.6 1000.6 -
21/06:30am 14.5 - - - - - - - - - 1000.3 - -
21/06:00am 14.7 - - - - - - - - - 999.9 999.9 -
21/05:30am 14.6 - - - - - - - - - 999.8 - -
21/05:00am 14.7 - - - - - - - - - 999.3 999.3 -
21/04:30am 15.0 - - - - CALM 0 0 0 0 998.9 998.9 -
21/04:00am 15.1 - - - - - - - - - 998.8 998.8 -
21/03:30am 15.0 - - - - - - - - - 998.7 - -
21/03:00am 16.1 - - - - - - - - - 998.6 998.6 -
21/02:30am 16.7 - - - - - - - - - 999.2 - -
21/02:00am 17.1 - - - - - - - - - 999.1 999.1 -

Other Formats:

Comma delimited format used in spreadsheet applications
http://www.bom.gov.au/fwo/IDT60801/IDT60801.95987.axf

JavaScript Object Notation format (JSON) in row-major order
http://www.bom.gov.au/fwo/IDT60801/IDT60801.95987.json